West Gum Springs, Arkansas
Current Conditions -  °F | °C
As of 4:56 AM on Wednesday 26 Nov 2014 (Local Time) from KADF Reporting Station
Clear Clear  
Wind Chill: 31°   Ceiling: Unl
Heat Index: 31°   Visibility: 9mi
Dew Point: 31°   Wind: 0mph
Humidity: 100%   Direction: NA
Pressure: 30.1"   Gusts: NA
Location:  34.0941°N, 93.0475°W
Report Text: KADF 261056Z AUTO 00000KT 9SM CLR M01/M01 A3010 RMK AO2 T10051005 SLP209
Loading
Personal Weather Stations






























Interactive Weather Map New forecast layout! Learn more

10-Day Weather Forecast

Advertisements
Track Severe Weather on mobile